Chimacum, Washington
Current Conditions -  °F | °C
As of 4:00 PM on Wednesday 22 Oct 2014 (Local Time) from KPAE Reporting Station
Light Rain Light Rain  
Wind Chill: 55°   Ceiling: 6000
Heat Index: 55°   Visibility: 6mi
Dew Point: 52°   Wind: 10mph
Humidity: 89%   Direction: 150°SSE
Pressure: 29.64"   Gusts: 17mph
Location:  48.01°N, 122.77°W
Report Text: KPAE 222300Z AUTO 15009G15KT 6SM -RA BR FEW045 BKN060 OVC070 13/11 A2964 RMK AO2 P0001 T01280111 TSNO
Loading
Personal Weather Stations






























Interactive Weather Map New forecast layout! Learn more

10-Day Weather Forecast

Advertisements
Track Severe Weather on mobile